Current Conditions
Clear
Conditions



Pressure
1012.87 (hPa) - 29.91 (inHG)
Visibility

9.7 (km) - 6.0 (miles)
   Temperature
21  °C
70°F
11  °C
Dewpoint
53  %
 Humidity
   Wind Speed
3  km/h
2  kts
2  mph
0.9  m/s
   Wind Direction
Calm
Due North
   Airport Data
LKTB
Location Brno-Tuřany Airport 15 km (9mi)
Metar :LKTB 201000Z VRB02KT CAVOK 21/11 Q1013 NOSIG
Mon 20th May 10:00 am
   Raw Metar Info
Raw METAR is the most common format in the world for the transmission of observational weather data. It is highly standardized through the International Civil Aviation Organization (ICAO), which allows it to be understood throughout most of the world.
   API Info
Data Provided by
https://www.checkwx.com/weather/
   © Info
CSS/SVG/PHP scripts were developed by weather34.com for use in the weather34 template © 2015-2024

Guide Info provided by Metar-Wikipedia